Time;durP1;ratioP1;P1;durP2;ratioP2;P2;SDS_P1;SDS_P2;PMS_P1;PMS_P2;Temp;Humidity;BMP_temperature;BMP_pressure;BME280_temperature;BME280_humidity;BME280_pressure;Samples;Min_cycle;Max_cycle;Signal;HPM_P1;HPM_P2
2023/12/13 00:00:56;;;;;;;7.05;6.65;;;4.60;99.90;;;;;;5010291;28;20245;-82
2023/12/13 00:03:23;;;;;;;4.70;4.38;;;4.60;99.90;;;;;;5010367;28;20249;-86
2023/12/13 00:05:50;;;;;;;4.75;4.45;;;4.60;99.90;;;;;;5010936;28;20220;-82
2023/12/13 00:08:19;;;;;;;3.67;3.47;;;4.60;99.90;;;;;;5015459;28;20216;-84
2023/12/13 00:10:46;;;;;;;7.60;7.15;;;4.60;99.90;;;;;;5005395;28;20202;-83
2023/12/13 00:13:14;;;;;;;4.15;3.85;;;4.60;99.90;;;;;;5000759;28;20202;-83
2023/12/13 00:15:41;;;;;;;9.98;4.63;;;4.50;99.90;;;;;;5011088;28;20198;-82
2023/12/13 00:18:08;;;;;;;2.38;2.17;;;4.50;99.90;;;;;;5013173;28;20282;-85
2023/12/13 00:20:36;;;;;;;6.45;5.90;;;4.50;99.90;;;;;;5010019;28;20186;-85
2023/12/13 00:23:04;;;;;;;5.85;5.45;;;4.50;99.90;;;;;;5000733;28;20210;-86
2023/12/13 00:25:32;;;;;;;6.75;4.93;;;4.50;99.90;;;;;;5002688;28;20723;-87
2023/12/13 00:28:00;;;;;;;5.43;4.93;;;4.50;99.90;;;;;;5002134;28;20213;-84
2023/12/13 00:30:27;;;;;;;2.85;2.70;;;4.50;99.90;;;;;;5005175;28;20253;-85
2023/12/13 00:32:54;;;;;;;5.15;4.88;;;4.40;99.90;;;;;;5005948;28;20214;-82
2023/12/13 00:35:21;;;;;;;5.95;5.10;;;4.50;99.90;;;;;;5005273;28;20482;-81
2023/12/13 00:37:48;;;;;;;3.90;3.55;;;4.50;99.90;;;;;;5001564;28;20257;-82
2023/12/13 00:40:17;;;;;;;3.15;2.95;;;4.50;99.90;;;;;;5006233;28;20217;-87
2023/12/13 00:42:45;;;;;;;5.88;5.35;;;4.50;99.90;;;;;;5004356;28;20196;-84
2023/12/13 00:45:12;;;;;;;4.80;4.50;;;4.50;99.90;;;;;;5012338;28;20237;-87
2023/12/13 00:47:39;;;;;;;2.22;2.13;;;4.50;99.90;;;;;;5013241;28;20229;-86
2023/12/13 00:50:08;;;;;;;5.00;3.85;;;4.50;99.90;;;;;;5014262;28;20245;-87
2023/12/13 00:52:35;;;;;;;3.65;3.45;;;4.40;99.90;;;;;;5012914;28;20210;-84
2023/12/13 00:55:04;;;;;;;4.30;4.10;;;4.50;99.90;;;;;;4999214;28;20226;-85
2023/12/13 00:57:31;;;;;;;4.18;3.05;;;4.50;99.90;;;;;;4994621;28;20317;-86
2023/12/13 00:59:59;;;;;;;5.38;4.88;;;4.50;99.90;;;;;;5004216;28;20210;-83
2023/12/13 01:02:27;;;;;;;11.98;6.30;;;4.50;99.90;;;;;;5199248;23;20776;-87
2023/12/13 01:04:54;;;;;;;3.58;3.25;;;4.50;99.90;;;;;;5020302;28;20205;-86
2023/12/13 01:07:22;;;;;;;2.50;2.40;;;4.70;99.90;;;;;;5019279;28;20205;-87
2023/12/13 01:09:49;;;;;;;3.78;3.55;;;4.50;99.90;;;;;;5021793;28;20209;-87
2023/12/13 01:12:17;;;;;;;6.43;3.80;;;4.50;99.90;;;;;;5020022;28;20213;-84
2023/12/13 01:14:44;;;;;;;4.85;4.38;;;4.50;99.90;;;;;;5020011;28;20280;-81
2023/12/13 01:17:13;;;;;;;1.83;1.73;;;4.60;99.90;;;;;;5020638;28;20304;-87
2023/12/13 01:19:40;;;;;;;2.05;1.85;;;4.60;99.90;;;;;;5024239;28;20213;-87
2023/12/13 01:22:08;;;;;;;4.35;3.95;;;4.60;99.90;;;;;;5029936;28;20208;-82
2023/12/13 01:24:36;;;;;;;4.13;3.75;;;4.60;99.90;;;;;;5017078;28;20280;-85
2023/12/13 01:27:05;;;;;;;5.35;4.97;;;4.80;99.90;;;;;;5025990;28;20216;-82
2023/12/13 01:29:32;;;;;;;2.03;1.95;;;4.60;99.90;;;;;;5026867;28;20220;-86
2023/12/13 01:31:59;;;;;;;1.67;1.58;;;4.60;99.90;;;;;;5026846;28;20268;-88
2023/12/13 01:34:26;;;;;;;4.53;4.25;;;4.60;99.90;;;;;;5027326;28;20209;-85
2023/12/13 01:36:53;;;;;;;3.42;3.22;;;4.60;99.90;;;;;;5025903;28;20225;-83
2023/12/13 01:39:20;;;;;;;6.45;4.05;;;4.60;99.90;;;;;;5024941;28;20201;-84
2023/12/13 01:41:47;;;;;;;10.65;4.50;;;4.60;99.90;;;;;;5026496;28;20461;-89
2023/12/13 01:44:15;;;;;;;2.80;2.60;;;4.60;99.90;;;;;;5025713;28;20252;-83
2023/12/13 01:46:42;;;;;;;3.38;3.17;;;4.50;99.90;;;;;;5025995;28;20241;-83
2023/12/13 01:49:11;;;;;;;4.15;3.83;;;4.60;99.90;;;;;;5037247;28;20190;-82
2023/12/13 01:51:40;;;;;;;6.43;5.97;;;4.60;99.90;;;;;;5024682;28;20268;-82
2023/12/13 01:54:11;;;;;;;8.75;8.15;;;4.60;99.90;;;;;;5024370;28;20458;-86
2023/12/13 01:56:40;;;;;;;2.75;2.63;;;4.60;99.90;;;;;;5024550;28;20237;-83
2023/12/13 01:59:09;;;;;;;2.25;2.13;;;4.70;99.90;;;;;;5028362;28;20240;-85
2023/12/13 02:01:37;;;;;;;2.00;1.88;;;4.60;99.90;;;;;;5029023;28;20208;-85
2023/12/13 02:04:05;;;;;;;8.70;7.93;;;4.60;99.90;;;;;;5017424;28;20289;-88
2023/12/13 02:06:32;;;;;;;2.97;2.83;;;4.70;99.90;;;;;;5021833;28;20233;-83
2023/12/13 02:09:00;;;;;;;4.53;4.18;;;4.70;99.90;;;;;;5018418;28;20207;-85
2023/12/13 02:11:27;;;;;;;3.58;3.38;;;4.70;99.90;;;;;;5024871;28;20276;-82
2023/12/13 02:13:55;;;;;;;4.80;3.60;;;4.70;99.90;;;;;;5025629;28;20204;-85
2023/12/13 02:16:22;;;;;;;3.00;2.90;;;4.60;99.90;;;;;;5022604;28;20201;-83
2023/12/13 02:18:49;;;;;;;3.15;3.03;;;4.60;99.90;;;;;;5015311;28;20208;-83
2023/12/13 02:21:16;;;;;;;2.25;2.15;;;4.60;99.90;;;;;;5030303;28;20236;-85
2023/12/13 02:23:44;;;;;;;5.80;2.55;;;4.60;99.90;;;;;;5030359;28;20202;-82
2023/12/13 02:26:12;;;;;;;2.35;2.25;;;4.60;99.90;;;;;;5026433;28;20280;-83
2023/12/13 02:28:40;;;;;;;2.20;2.15;;;4.60;99.90;;;;;;5022963;28;20229;-87
2023/12/13 02:31:09;;;;;;;2.35;2.25;;;4.60;99.90;;;;;;5110331;23;20230;-86
2023/12/13 02:33:40;;;;;;;1.67;1.58;;;4.60;99.90;;;;;;5122149;23;20256;-85
2023/12/13 02:36:09;;;;;;;2.38;2.28;;;4.60;99.90;;;;;;5029533;28;20201;-91
2023/12/13 02:38:36;;;;;;;2.40;2.22;;;4.60;99.90;;;;;;5241304;23;20445;-85
2023/12/13 02:41:03;;;;;;;3.47;2.97;;;4.50;99.90;;;;;;5003139;28;20238;-88
2023/12/13 02:43:30;;;;;;;3.40;2.83;;;4.50;99.90;;;;;;4996245;28;20257;-89
2023/12/13 02:45:58;;;;;;;3.03;2.92;;;4.50;99.90;;;;;;4994261;28;20230;-85
2023/12/13 02:48:25;;;;;;;2.63;1.88;;;4.40;99.90;;;;;;5001042;28;20214;-84
2023/12/13 02:50:52;;;;;;;12.45;3.50;;;4.40;99.90;;;;;;5004759;28;20245;-89
2023/12/13 02:53:21;;;;;;;1.90;1.80;;;4.40;99.90;;;;;;4995771;28;20214;-84
2023/12/13 02:55:48;;;;;;;5.55;5.18;;;4.60;99.90;;;;;;5002978;28;20244;-84
2023/12/13 02:58:15;;;;;;;1.25;1.20;;;4.40;99.90;;;;;;4997990;28;20257;-84
2023/12/13 03:00:43;;;;;;;4.55;3.45;;;4.40;99.90;;;;;;4998044;28;20218;-84
2023/12/13 03:03:10;;;;;;;2.45;2.25;;;4.20;99.90;;;;;;4998339;28;20213;-85
2023/12/13 03:05:37;;;;;;;7.93;3.35;;;4.40;99.90;;;;;;5012148;28;20233;-81
2023/12/13 03:08:04;;;;;;;3.35;3.22;;;4.40;99.90;;;;;;5004508;28;20234;-82
2023/12/13 03:10:31;;;;;;;3.22;3.08;;;4.40;99.90;;;;;;5008321;28;20265;-86
2023/12/13 03:12:58;;;;;;;1.60;1.60;;;4.30;99.90;;;;;;5006047;28;20222;-84
2023/12/13 03:15:25;;;;;;;3.67;3.38;;;4.30;99.90;;;;;;5005050;28;20221;-86
2023/12/13 03:17:52;;;;;;;2.83;2.65;;;4.30;99.90;;;;;;5001871;28;20234;-82
2023/12/13 03:20:19;;;;;;;1.30;1.30;;;4.30;99.90;;;;;;5000442;28;20202;-85
2023/12/13 03:22:47;;;;;;;3.50;3.33;;;4.30;99.90;;;;;;4995803;28;20206;-90
2023/12/13 03:25:14;;;;;;;2.85;2.63;;;4.30;99.90;;;;;;5000286;28;20207;-85
2023/12/13 03:27:42;;;;;;;3.70;3.40;;;4.30;99.90;;;;;;4999482;28;20202;-86
2023/12/13 03:30:10;;;;;;;4.25;4.05;;;4.30;99.90;;;;;;4996493;28;20210;-85
2023/12/13 03:32:39;;;;;;;6.43;3.42;;;4.40;99.90;;;;;;5003691;28;20246;-90
2023/12/13 03:35:06;;;;;;;5.75;5.35;;;4.30;99.90;;;;;;4992505;28;20215;-84
2023/12/13 03:37:34;;;;;;;2.90;2.70;;;4.40;99.90;;;;;;4994693;28;20222;-88
2023/12/13 03:40:03;;;;;;;2.72;2.38;;;4.30;99.90;;;;;;4998026;28;20206;-88
2023/12/13 03:42:30;;;;;;;3.08;2.90;;;4.30;99.90;;;;;;5123361;23;20226;-82
2023/12/13 03:44:57;;;;;;;1.88;1.80;;;4.40;99.90;;;;;;5016396;28;20217;-86
2023/12/13 03:47:24;;;;;;;1.55;1.55;;;4.30;99.90;;;;;;5007515;28;20246;-81
2023/12/13 03:49:51;;;;;;;10.75;6.07;;;4.30;99.90;;;;;;5386097;23;20446;-88
2023/12/13 03:52:19;;;;;;;4.65;3.95;;;4.40;99.90;;;;;;5085990;23;20233;-82
2023/12/13 03:54:46;;;;;;;6.82;5.50;;;4.40;99.90;;;;;;4985651;28;20230;-86
2023/12/13 03:57:13;;;;;;;2.90;2.63;;;4.40;99.90;;;;;;4994566;28;20213;-86
2023/12/13 03:59:40;;;;;;;3.33;3.00;;;4.40;99.90;;;;;;4987803;28;20213;-85
2023/12/13 04:02:07;;;;;;;1.85;1.65;;;4.40;99.90;;;;;;4986645;28;20277;-81
2023/12/13 04:04:35;;;;;;;4.38;4.10;;;4.40;99.90;;;;;;4985563;28;20217;-88
2023/12/13 04:07:05;;;;;;;2.65;2.55;;;4.40;99.90;;;;;;4992100;28;20209;-88
2023/12/13 04:09:33;;;;;;;5.90;3.50;;;4.40;99.90;;;;;;4984534;28;20238;-89
2023/12/13 04:12:02;;;;;;;4.00;3.80;;;4.30;99.90;;;;;;4997148;28;20253;-84
2023/12/13 04:14:29;;;;;;;3.47;2.25;;;4.40;99.90;;;;;;4982270;28;20217;-84
2023/12/13 04:16:56;;;;;;;9.30;3.78;;;4.40;99.90;;;;;;4983446;28;20222;-83
2023/12/13 04:19:23;;;;;;;5.25;4.72;;;4.40;99.90;;;;;;4984395;28;20306;-87
2023/12/13 04:21:50;;;;;;;1.20;1.20;;;4.40;99.90;;;;;;4977211;28;20207;-83
2023/12/13 04:24:17;;;;;;;1.52;1.42;;;4.50;99.90;;;;;;4984128;28;20234;-83
2023/12/13 04:26:44;;;;;;;5.68;4.93;;;4.40;99.90;;;;;;4980289;28;20278;-85
2023/12/13 04:29:12;;;;;;;1.77;1.67;;;4.40;99.90;;;;;;4982855;28;20211;-86
2023/12/13 04:31:39;;;;;;;6.07;3.78;;;4.40;99.90;;;;;;4986972;28;20388;-82
2023/12/13 04:34:07;;;;;;;5.82;5.35;;;4.40;99.90;;;;;;4990037;28;20234;-84
2023/12/13 04:36:35;;;;;;;1.05;1.05;;;4.40;99.90;;;;;;5152410;22;20238;-85
2023/12/13 04:39:03;;;;;;;4.40;4.03;;;4.40;99.90;;;;;;5005329;28;20229;-85
2023/12/13 04:41:32;;;;;;;2.80;2.70;;;4.40;99.90;;;;;;5012530;28;20278;-85
2023/12/13 04:43:59;;;;;;;1.90;1.83;;;4.40;99.90;;;;;;5005267;28;20233;-86
2023/12/13 04:46:26;;;;;;;6.03;1.83;;;4.40;99.90;;;;;;5000858;28;20246;-83
2023/12/13 04:48:54;;;;;;;3.90;2.92;;;4.40;99.90;;;;;;5002901;28;20206;-84
2023/12/13 04:51:21;;;;;;;2.63;2.33;;;4.40;99.90;;;;;;5000815;28;20233;-83
2023/12/13 04:53:48;;;;;;;2.58;2.45;;;4.40;99.90;;;;;;5006687;28;20210;-86
2023/12/13 04:56:15;;;;;;;3.08;2.78;;;4.40;99.90;;;;;;5019241;28;20258;-86
2023/12/13 04:58:42;;;;;;;2.15;2.05;;;4.40;99.90;;;;;;5020521;28;20221;-86
2023/12/13 05:01:10;;;;;;;2.05;1.90;;;4.40;99.90;;;;;;5010920;28;20222;-85
2023/12/13 05:03:37;;;;;;;1.83;1.73;;;4.50;99.90;;;;;;5009109;28;20217;-89
2023/12/13 05:06:04;;;;;;;4.45;3.88;;;4.50;99.90;;;;;;5005039;28;20277;-89
2023/12/13 05:08:33;;;;;;;1.55;1.45;;;4.50;99.90;;;;;;5005293;28;20491;-89
2023/12/13 05:11:00;;;;;;;13.48;3.85;;;4.50;99.90;;;;;;5005044;28;20206;-82
2023/12/13 05:13:27;;;;;;;2.78;2.67;;;4.40;99.90;;;;;;5005304;28;20273;-88
2023/12/13 05:15:54;;;;;;;1.08;1.08;;;4.60;99.90;;;;;;5006121;28;20221;-85
2023/12/13 05:18:21;;;;;;;2.65;2.55;;;4.50;99.90;;;;;;5003712;28;20264;-84
2023/12/13 05:20:49;;;;;;;9.88;5.53;;;4.50;99.90;;;;;;5005406;28;20262;-86
2023/12/13 05:23:16;;;;;;;3.58;3.30;;;4.50;99.90;;;;;;5005124;28;20213;-89
2023/12/13 05:25:45;;;;;;;1.88;1.77;;;4.70;99.90;;;;;;5005058;28;20290;-84
2023/12/13 05:28:12;;;;;;;2.00;1.90;;;4.50;99.90;;;;;;5003357;28;20210;-86
2023/12/13 05:30:39;;;;;;;2.20;2.10;;;4.50;99.90;;;;;;5006894;28;20222;-83
2023/12/13 05:33:07;;;;;;;3.00;2.80;;;4.60;99.90;;;;;;5014853;28;20205;-87
2023/12/13 05:35:35;;;;;;;13.60;1.90;;;4.60;99.90;;;;;;5016044;28;20213;-85
2023/12/13 05:38:02;;;;;;;2.95;2.75;;;4.60;99.90;;;;;;5015789;28;20217;-82
2023/12/13 05:40:28;;;;;;;5.10;4.82;;;4.60;99.90;;;;;;5007699;28;20747;-87
2023/12/13 05:42:56;;;;;;;4.82;4.53;;;4.60;99.90;;;;;;5006743;28;20202;-85
2023/12/13 05:45:23;;;;;;;5.70;5.20;;;4.60;99.90;;;;;;5002531;28;20293;-84
2023/12/13 05:47:50;;;;;;;2.78;1.88;;;4.60;99.90;;;;;;5009396;28;20273;-83
2023/12/13 05:50:18;;;;;;;3.60;3.30;;;4.60;99.90;;;;;;5003387;28;20269;-86
2023/12/13 05:52:45;;;;;;;3.28;3.17;;;4.60;99.90;;;;;;5004288;28;20249;-85
2023/12/13 05:55:12;;;;;;;1.77;1.67;;;4.60;99.90;;;;;;5006588;28;20213;-88
2023/12/13 05:57:39;;;;;;;1.73;1.67;;;4.70;99.90;;;;;;5003200;28;20237;-85
2023/12/13 06:00:07;;;;;;;3.28;1.92;;;4.50;99.90;;;;;;4999746;28;20213;-83
2023/12/13 06:02:35;;;;;;;1.60;1.60;;;4.60;99.90;;;;;;4993196;28;20502;-83
2023/12/13 06:05:03;;;;;;;3.53;3.33;;;4.60;99.90;;;;;;4999021;28;20210;-86
2023/12/13 06:07:32;;;;;;;2.45;2.35;;;4.60;99.90;;;;;;5004665;28;20221;-83
2023/12/13 06:09:59;;;;;;;1.77;1.73;;;4.60;99.90;;;;;;5002346;28;20214;-86
2023/12/13 06:12:28;;;;;;;1.40;1.40;;;4.60;99.90;;;;;;5005145;28;20212;-87
2023/12/13 06:14:58;;;;;;;3.22;3.03;;;4.60;99.90;;;;;;4997731;28;20213;-83
2023/12/13 06:17:25;;;;;;;3.10;2.92;;;4.60;99.90;;;;;;4995863;28;20301;-84
2023/12/13 06:19:53;;;;;;;1.98;1.80;;;4.70;99.90;;;;;;5006756;28;20210;-84
2023/12/13 06:22:20;;;;;;;3.42;3.33;;;4.60;99.90;;;;;;5000732;28;20198;-84
2023/12/13 06:24:50;;;;;;;0.90;0.90;;;4.60;99.90;;;;;;4998219;28;20237;-88
2023/12/13 06:27:18;;;;;;;1.60;1.50;;;4.60;99.90;;;;;;5008593;28;20189;-85
2023/12/13 06:29:45;;;;;;;0.85;0.85;;;4.60;99.90;;;;;;5082740;23;20222;-81
2023/12/13 06:32:12;;;;;;;2.75;1.60;;;4.60;99.90;;;;;;5102517;23;20245;-84
2023/12/13 06:34:39;;;;;;;0.80;0.80;;;4.60;99.90;;;;;;5122366;23;20268;-82
2023/12/13 06:37:07;;;;;;;1.20;1.20;;;4.60;99.90;;;;;;5025325;28;20265;-85
2023/12/13 06:39:34;;;;;;;2.38;2.28;;;4.60;99.90;;;;;;5031874;28;20222;-87
2023/12/13 06:42:02;;;;;;;0.60;0.60;;;4.60;99.90;;;;;;5118378;23;20565;-84
2023/12/13 06:44:29;;;;;;;0.70;0.70;;;4.60;99.90;;;;;;5033729;28;20214;-85
2023/12/13 06:46:57;;;;;;;2.08;1.98;;;4.60;99.90;;;;;;5298397;23;20245;-81
2023/12/13 06:49:28;;;;;;;1.25;1.25;;;4.60;99.90;;;;;;5015710;28;20237;-87
2023/12/13 06:51:56;;;;;;;3.85;3.55;;;4.70;99.90;;;;;;5006579;28;20502;-89
2023/12/13 06:54:23;;;;;;;1.83;1.73;;;4.70;99.90;;;;;;4999300;28;20274;-84
2023/12/13 06:56:50;;;;;;;3.72;2.22;;;4.70;99.90;;;;;;5002634;28;20554;-86
2023/12/13 06:59:18;;;;;;;4.78;4.38;;;4.60;99.90;;;;;;5000616;28;20294;-82
2023/12/13 07:01:45;;;;;;;1.27;1.27;;;4.70;99.90;;;;;;5002889;28;20274;-88
2023/12/13 07:04:13;;;;;;;1.20;1.20;;;4.80;99.90;;;;;;4995796;28;20249;-85
2023/12/13 07:06:41;;;;;;;3.10;2.95;;;4.80;99.90;;;;;;5003927;28;20226;-87
2023/12/13 07:09:10;;;;;;;1.17;1.17;;;4.80;99.90;;;;;;5003669;28;20286;-87
2023/12/13 07:11:38;;;;;;;1.70;1.60;;;4.80;99.90;;;;;;5000858;28;20297;-82
2023/12/13 07:14:08;;;;;;;1.10;1.05;;;4.80;99.90;;;;;;5000912;28;20383;-88
2023/12/13 07:16:35;;;;;;;0.95;0.95;;;4.80;99.90;;;;;;5008343;28;20271;-87
2023/12/13 07:19:02;;;;;;;2.50;2.08;;;4.90;99.90;;;;;;5002406;28;20233;-86
2023/12/13 07:21:29;;;;;;;1.70;1.60;;;5.00;99.90;;;;;;5001979;28;20206;-87
2023/12/13 07:26:30;;;;;;;4.20;3.00;;;4.90;99.90;;;;;;5220996;23;20244;-85
2023/12/13 07:28:58;;;;;;;0.60;0.60;;;4.90;99.90;;;;;;5021680;28;20249;-87
2023/12/13 07:31:25;;;;;;;1.73;1.63;;;4.90;99.90;;;;;;5020784;28;20231;-81
2023/12/13 07:33:52;;;;;;;1.90;1.63;;;5.00;99.90;;;;;;5022817;28;20201;-83
2023/12/13 07:36:20;;;;;;;1.10;1.10;;;5.00;99.90;;;;;;5026402;28;20209;-84
2023/12/13 07:38:47;;;;;;;1.48;1.38;;;5.10;99.90;;;;;;5026651;28;20237;-89
2023/12/13 07:41:14;;;;;;;2.53;2.42;;;5.00;99.90;;;;;;5025688;28;20288;-86
2023/12/13 07:43:43;;;;;;;4.25;3.85;;;5.00;99.90;;;;;;5027230;28;20236;-85
2023/12/13 07:46:11;;;;;;;1.15;1.15;;;5.00;99.90;;;;;;5004769;28;20244;-87
2023/12/13 07:48:41;;;;;;;13.18;4.60;;;5.00;99.90;;;;;;5021379;28;20537;-84
2023/12/13 07:51:09;;;;;;;5.05;2.33;;;5.00;99.90;;;;;;5035411;28;20205;-87
2023/12/13 07:53:36;;;;;;;1.88;1.77;;;5.00;99.90;;;;;;5024495;28;20337;-85
2023/12/13 07:56:06;;;;;;;4.78;3.20;;;5.10;99.90;;;;;;5018850;28;20264;-86
2023/12/13 07:58:34;;;;;;;2.67;2.47;;;5.00;99.90;;;;;;5018555;28;20236;-82
2023/12/13 08:01:02;;;;;;;0.93;0.93;;;5.10;99.90;;;;;;5023115;28;20251;-82
2023/12/13 08:03:29;;;;;;;1.40;1.35;;;5.10;99.90;;;;;;5020550;28;20217;-89
2023/12/13 08:05:57;;;;;;;4.50;2.33;;;5.10;99.90;;;;;;5028056;28;20205;-86
2023/12/13 08:08:24;;;;;;;8.07;3.90;;;5.10;99.90;;;;;;5023380;28;20518;-81
2023/12/13 08:10:52;;;;;;;1.85;1.75;;;5.10;99.90;;;;;;5028177;28;20198;-82
2023/12/13 08:13:19;;;;;;;1.48;1.42;;;5.10;99.90;;;;;;5029930;28;20228;-82
2023/12/13 08:15:48;;;;;;;3.60;2.15;;;5.30;99.90;;;;;;5207346;23;20234;-88
2023/12/13 08:18:15;;;;;;;5.05;3.95;;;5.20;99.90;;;;;;4982671;28;20226;-86
2023/12/13 08:20:46;;;;;;;5.07;4.03;;;5.20;99.90;;;;;;4985845;28;20270;-89
2023/12/13 08:23:13;;;;;;;8.82;3.70;;;5.20;99.90;;;;;;4988040;28;20207;-87
2023/12/13 08:25:43;;;;;;;2.33;2.22;;;5.30;99.90;;;;;;4986726;28;20191;-85
2023/12/13 08:28:10;;;;;;;2.10;2.00;;;5.30;99.90;;;;;;5137628;23;20230;-85
2023/12/13 08:30:37;;;;;;;2.35;2.25;;;5.40;99.90;;;;;;5007614;28;20255;-83
2023/12/13 08:33:04;;;;;;;2.70;2.60;;;5.30;99.90;;;;;;5414885;23;20248;-81
2023/12/13 08:35:31;;;;;;;1.60;1.60;;;5.30;99.90;;;;;;5024253;28;20198;-84
2023/12/13 08:37:58;;;;;;;3.22;2.95;;;5.30;99.90;;;;;;5023968;28;20232;-85
2023/12/13 08:40:25;;;;;;;2.70;2.55;;;5.30;99.90;;;;;;5023981;28;20197;-86
2023/12/13 08:42:52;;;;;;;1.83;1.75;;;5.30;99.90;;;;;;5025573;28;20225;-87
2023/12/13 08:45:22;;;;;;;3.13;2.95;;;5.40;99.90;;;;;;5025205;28;20204;-87
2023/12/13 08:47:50;;;;;;;3.08;2.83;;;5.60;99.90;;;;;;5024375;28;20205;-86
2023/12/13 08:50:20;;;;;;;1.88;1.85;;;5.40;99.90;;;;;;5043121;28;20210;-88
2023/12/13 08:52:47;;;;;;;2.42;2.22;;;5.50;99.90;;;;;;5026327;28;20192;-87
2023/12/13 08:55:14;;;;;;;4.18;3.97;;;5.60;99.90;;;;;;5098929;23;20245;-87
2023/12/13 08:57:41;;;;;;;9.48;5.47;;;5.50;99.90;;;;;;4986690;28;20219;-81
2023/12/13 09:00:09;;;;;;;2.95;2.75;;;5.50;99.90;;;;;;4991419;28;20223;-85
2023/12/13 09:02:38;;;;;;;2.55;2.08;;;5.50;99.90;;;;;;4992901;28;20241;-83
2023/12/13 09:05:05;;;;;;;2.15;2.08;;;5.50;99.90;;;;;;4995432;28;20230;-87
2023/12/13 09:07:32;;;;;;;3.28;3.05;;;5.60;99.90;;;;;;5050572;23;20257;-83
2023/12/13 09:10:00;;;;;;;3.90;3.67;;;5.90;99.90;;;;;;5100383;23;20212;-85
2023/12/13 09:12:27;;;;;;;2.80;2.70;;;5.70;99.90;;;;;;5010055;28;20212;-83
2023/12/13 09:14:54;;;;;;;7.78;5.30;;;5.80;99.90;;;;;;5002799;28;20215;-84
2023/12/13 09:17:21;;;;;;;4.10;3.80;;;5.70;99.90;;;;;;5018134;28;20193;-86
2023/12/13 09:19:49;;;;;;;2.10;2.00;;;5.80;99.90;;;;;;5150165;23;20276;-86
2023/12/13 09:22:17;;;;;;;5.45;5.18;;;5.90;99.90;;;;;;5071258;23;20206;-81
2023/12/13 09:24:45;;;;;;;3.45;3.22;;;6.00;99.90;;;;;;5008862;28;20214;-88
2023/12/13 09:27:16;;;;;;;1.85;1.77;;;5.90;99.90;;;;;;5003947;28;20538;-84
2023/12/13 09:29:43;;;;;;;2.15;2.05;;;5.70;99.90;;;;;;5005644;28;20266;-83
2023/12/13 09:32:11;;;;;;;2.28;2.08;;;5.70;99.90;;;;;;5004061;28;20210;-82
2023/12/13 09:34:39;;;;;;;2.30;2.20;;;5.70;99.90;;;;;;5008016;28;20286;-83
2023/12/13 09:37:06;;;;;;;3.13;2.92;;;5.90;99.90;;;;;;5002891;28;20214;-86
2023/12/13 09:39:33;;;;;;;2.55;1.30;;;5.70;99.90;;;;;;5018714;28;20230;-86
2023/12/13 09:42:03;;;;;;;1.08;1.08;;;5.90;99.90;;;;;;5005957;28;20210;-85
2023/12/13 09:44:30;;;;;;;2.60;2.50;;;6.00;99.90;;;;;;5000354;28;20237;-87
2023/12/13 09:47:01;;;;;;;2.60;2.40;;;5.80;99.90;;;;;;5008078;28;20206;-91
2023/12/13 09:49:31;;;;;;;8.75;3.85;;;5.80;99.90;;;;;;5007480;28;20241;-85
2023/12/13 09:52:08;;;;;;;3.63;3.33;;;5.90;99.90;;;;;;5020420;28;20205;-87
2023/12/13 09:57:20;;;;;;;3.47;2.85;;;6.10;99.90;;;;;;5085051;23;20241;-86
2023/12/13 09:59:47;;;;;;;3.08;2.15;;;6.10;99.90;;;;;;4996428;28;20230;-83
2023/12/13 10:02:17;;;;;;;2.67;2.47;;;6.00;99.90;;;;;;5001631;28;20206;-88
2023/12/13 10:04:45;;;;;;;0.90;0.90;;;6.10;99.90;;;;;;5003367;28;20210;-81
2023/12/13 10:07:12;;;;;;;5.68;3.70;;;6.00;99.90;;;;;;5010722;28;20222;-90
2023/12/13 10:09:40;;;;;;;1.20;1.20;;;6.10;99.90;;;;;;5011779;28;20346;-89
2023/12/13 10:12:08;;;;;;;3.47;3.25;;;6.20;99.90;;;;;;5011118;28;20356;-85
2023/12/13 10:14:35;;;;;;;1.08;1.08;;;6.30;99.90;;;;;;5006568;28;20511;-83
2023/12/13 10:17:03;;;;;;;2.08;1.98;;;6.10;99.90;;;;;;5010240;28;20353;-88
2023/12/13 10:19:45;;;;;;;1.48;1.48;;;6.00;99.90;;;;;;5009728;28;20226;-85
2023/12/13 10:22:13;;;;;;;3.78;3.58;;;5.80;99.90;;;;;;5005728;28;20209;-84
2023/12/13 10:24:41;;;;;;;1.40;1.35;;;5.80;99.90;;;;;;4999686;28;20221;-82
2023/12/13 10:27:08;;;;;;;1.65;1.65;;;5.90;99.90;;;;;;5013246;28;20317;-87
2023/12/13 10:29:36;;;;;;;2.45;2.35;;;6.00;99.90;;;;;;5013019;28;20222;-83
2023/12/13 10:32:03;;;;;;;2.28;2.17;;;5.90;99.90;;;;;;5004405;28;20218;-83
2023/12/13 10:34:30;;;;;;;1.33;1.33;;;6.00;99.90;;;;;;4992258;28;20496;-83
2023/12/13 10:36:59;;;;;;;1.52;1.42;;;5.90;99.90;;;;;;5011191;28;20248;-85
2023/12/13 10:39:27;;;;;;;2.35;2.25;;;6.00;99.90;;;;;;5009710;28;20238;-87
2023/12/13 10:41:56;;;;;;;1.05;0.95;;;6.20;99.90;;;;;;5006484;28;20491;-83
2023/12/13 10:44:26;;;;;;;1.42;1.38;;;5.90;99.90;;;;;;5139900;23;20557;-83
2023/12/13 10:47:00;;;;;;;1.52;1.52;;;5.90;99.90;;;;;;5124707;23;20236;-86
2023/12/13 10:52:17;;;;;;;0.90;0.90;;;5.90;99.90;;;;;;5346090;23;20205;-84
2023/12/13 10:54:47;;;;;;;0.80;0.80;;;5.90;99.90;;;;;;4997890;28;20261;-85
2023/12/13 11:00:03;;;;;;;1.30;1.30;;;5.90;99.90;;;;;;5034042;23;20310;-86
2023/12/13 11:07:48;;;;;;;2.25;2.15;;;5.90;99.90;;;;;;5104355;23;20225;-90
2023/12/13 11:10:16;;;;;;;1.65;1.58;;;5.90;99.90;;;;;;5083895;23;20242;-88
2023/12/13 11:12:51;;;;;;;0.70;0.70;;;5.90;99.90;;;;;;4966259;28;20196;-90
2023/12/13 11:15:20;;;;;;;1.35;1.35;;;6.00;99.90;;;;;;5427361;23;20222;-88
2023/12/13 11:17:50;;;;;;;1.75;1.67;;;6.10;99.90;;;;;;5258684;23;20600;-83
2023/12/13 11:20:20;;;;;;;1.73;1.67;;;5.80;99.90;;;;;;5486709;23;20562;-87
2023/12/13 11:25:37;;;;;;;1.20;1.20;;;5.90;99.90;;;;;;5206572;23;20499;-90
2023/12/13 11:33:21;;;;;;;1.42;1.42;;;5.90;99.90;;;;;;5583607;23;20264;-88
2023/12/13 11:35:54;;;;;;;0.93;0.93;;;6.00;99.90;;;;;;5431563;23;20249;-82
2023/12/13 11:40:57;;;;;;;1.05;1.05;;;6.30;99.90;;;;;;5070866;23;20288;-88
2023/12/13 11:43:25;;;;;;;3.42;3.22;;;6.30;99.90;;;;;;5188155;23;20605;-82
2023/12/13 11:45:55;;;;;;;0.50;0.50;;;6.30;99.90;;;;;;4986297;28;20225;-89
2023/12/13 11:48:32;;;;;;;0.73;0.73;;;6.50;99.90;;;;;;4990276;28;20234;-89
2023/12/13 11:51:01;;;;;;;2.15;2.05;;;6.50;99.90;;;;;;5208983;23;20231;-86
2023/12/13 11:53:29;;;;;;;1.13;1.13;;;6.50;99.90;;;;;;5001723;28;20195;-81
2023/12/13 11:58:31;;;;;;;3.58;1.75;;;6.30;99.90;;;;;;5410650;23;20230;-84
2023/12/13 12:00:59;;;;;;;6.82;3.38;;;6.20;99.90;;;;;;5011181;28;20198;-80
2023/12/13 12:03:26;;;;;;;2.03;1.92;;;6.20;99.90;;;;;;5134500;23;20418;-85
2023/12/13 12:08:36;;;;;;;0.98;0.98;;;6.00;99.90;;;;;;5305900;23;20243;-90
2023/12/13 12:11:04;;;;;;;4.68;4.38;;;6.30;99.90;;;;;;5164760;23;20239;-89
2023/12/13 12:24:10;;;;;;;0.68;0.68;;;6.30;99.90;;;;;;5182583;23;20478;-79
2023/12/13 12:26:37;;;;;;;2.15;2.08;;;6.30;99.90;;;;;;5002773;28;20215;-82
2023/12/13 12:29:04;;;;;;;1.23;1.23;;;6.10;99.90;;;;;;4973192;28;20253;-84
2023/12/13 12:34:24;;;;;;;2.05;1.95;;;6.20;99.90;;;;;;5365369;23;20233;-85
2023/12/13 12:36:53;;;;;;;1.52;1.50;;;6.30;99.90;;;;;;5109379;23;20237;-88
2023/12/13 12:39:29;;;;;;;1.08;1.08;;;6.40;99.90;;;;;;5446756;23;20220;-89
2023/12/13 12:44:39;;;;;;;2.22;1.98;;;6.60;99.90;;;;;;5431920;23;20257;-82
2023/12/13 12:47:06;;;;;;;1.25;1.25;;;6.80;99.90;;;;;;5082436;23;20246;-90
2023/12/13 12:52:08;;;;;;;3.67;2.42;;;6.60;99.90;;;;;;4973601;28;20211;-86
2023/12/13 12:54:37;;;;;;;1.50;1.48;;;6.60;99.90;;;;;;4991841;28;20278;-87
2023/12/13 12:59:50;;;;;;;1.30;1.30;;;6.60;99.90;;;;;;5071366;23;20222;-90
2023/12/13 13:02:18;;;;;;;1.45;1.45;;;6.80;99.90;;;;;;5085083;23;20237;-85
2023/12/13 13:07:21;;;;;;;2.05;1.95;;;6.70;99.90;;;;;;5189416;23;20323;-81
2023/12/13 13:09:49;;;;;;;5.53;5.13;;;6.60;99.90;;;;;;4973054;28;20250;-88
2023/12/13 13:12:27;;;;;;;1.90;1.80;;;6.50;99.90;;;;;;5483110;23;20233;-87
2023/12/13 13:14:54;;;;;;;1.08;1.08;;;6.50;99.90;;;;;;5584701;23;20245;-85
2023/12/13 13:17:22;;;;;;;3.20;2.95;;;6.50;99.90;;;;;;5001712;28;20293;-88
2023/12/13 13:30:08;;;;;;;2.47;2.30;;;6.50;99.90;;;;;;5224530;23;20332;-87
2023/12/13 13:43:09;;;;;;;0.70;0.70;;;6.40;99.90;;;;;;4992955;28;20202;-88
2023/12/13 13:45:36;;;;;;;2.80;2.60;;;6.40;99.90;;;;;;5357389;23;20236;-85
2023/12/13 13:48:04;;;;;;;3.42;3.22;;;6.40;99.90;;;;;;4996651;28;20211;-82
2023/12/13 13:50:31;;;;;;;4.22;3.33;;;6.30;99.90;;;;;;5415291;23;20234;-85
2023/12/13 13:53:00;;;;;;;3.60;2.60;;;6.20;99.90;;;;;;5076276;23;20218;-85
2023/12/13 13:58:03;;;;;;;1.65;1.55;;;6.30;99.90;;;;;;5429607;23;20212;-87
2023/12/13 14:05:44;;;;;;;2.75;2.60;;;6.30;99.90;;;;;;5893403;23;20210;-87
2023/12/13 14:10:53;;;;;;;4.85;4.55;;;6.30;99.90;;;;;;5642231;23;20231;-88
2023/12/13 14:13:22;;;;;;;1.17;1.17;;;6.30;99.90;;;;;;5302942;23;20419;-87
2023/12/13 14:23:49;;;;;;;2.40;1.75;;;6.30;99.90;;;;;;5657162;23;20286;-87
2023/12/13 14:34:15;;;;;;;3.92;3.72;;;6.20;99.90;;;;;;5948270;23;20184;-89
2023/12/13 14:42:00;;;;;;;1.77;1.67;;;6.30;99.90;;;;;;5192118;23;20241;-81
2023/12/13 14:44:28;;;;;;;3.65;3.45;;;6.30;99.90;;;;;;5473230;23;20229;-87
2023/12/13 14:49:37;;;;;;;4.93;4.63;;;6.20;99.90;;;;;;5413832;23;20262;-84
2023/12/13 14:54:43;;;;;;;2.55;2.45;;;6.30;99.90;;;;;;4996733;28;20202;-87